Observation data for Northfield on 11/15/2019      Previous  Date       Current Mesonet Observations  Soil Data  Daily Summary Page  Observations in Plain Language
KNOR 150600Z 24005KT 01/M03 A3043 RMK A01 T00071028  RH  078%=      5-min Rain = 0
KNOR 150605Z 24006KT 01/M03 A3043 RMK A01 T00061028  RH  079%=      5-min Rain = 0
KNOR 150610Z 25006KT 01/M03 A3043 RMK A01 T00051028  RH  079%=      5-min Rain = 0
KNOR 150615Z 25006KT 00/M03 A3043 RMK A01 T00021029  RH  080%=      5-min Rain = 0
KNOR 150620Z 24006KT 00/03 A3043 RMK A01 T00000-29  RH  081%=      5-min Rain = 0
KNOR 150625Z 24005KT 00/03 A3043 RMK A01 T00000-29  RH  081%=      5-min Rain = 0
KNOR 150630Z 25005KT M00/M03 A3043 RMK A01 T10021031  RH  082%=      5-min Rain = 0
KNOR 150635Z 25005KT M00/M03 A3043 RMK A01 T10041031  RH  083%=      5-min Rain = 0
KNOR 150640Z 25006KT M01/M03 A3043 RMK A01 T10051031  RH  083%=      5-min Rain = 0
KNOR 150645Z 25005KT M01/M03 A3043 RMK A01 T10061032  RH  083%=      5-min Rain = 0
KNOR 150650Z 25004KT M01/M03 A3043 RMK A01 T10051030  RH  084%=      5-min Rain = 0
KNOR 150655Z 24004KT 00/M03 A3043 RMK A01 T00021026  RH  082%=      5-min Rain = 0
KNOR 150700Z 23004KT 00/M03 A3043 RMK A01 T00011028  RH  081%=      5-min Rain = 0
KNOR 150705Z 23005KT 00/M03 A3043 RMK A01 T00021028  RH  081%=      5-min Rain = 0
KNOR 150710Z 23005KT M00/M03 A3043 RMK A01 T10011030  RH  082%=      5-min Rain = 0
KNOR 150715Z 23005KT M00/M03 A3043 RMK A01 T10021030  RH  082%=      5-min Rain = 0
KNOR 150720Z 23004KT 00/03 A3043 RMK A01 T00-00-27  RH  083%=      5-min Rain = 0
KNOR 150725Z 22004KT M00/M03 A3043 RMK A01 T10011029  RH  082%=      5-min Rain = 0
KNOR 150730Z 23004KT M00/M03 A3042 RMK A01 T10041031  RH  083%=      5-min Rain = 0
KNOR 150735Z 23005KT M01/M03 A3042 RMK A01 T10051030  RH  084%=      5-min Rain = 0
KNOR 150740Z 23005KT M01/M03 A3042 RMK A01 T10061030  RH  084%=      5-min Rain = 0
KNOR 150745Z 23005KT M01/M03 A3042 RMK A01 T10071030  RH  085%=      5-min Rain = 0
KNOR 150750Z 23005KT M01/M03 A3042 RMK A01 T10071030  RH  085%=      5-min Rain = 0
KNOR 150755Z 23005KT M01/M03 A3042 RMK A01 T10081031  RH  085%=      5-min Rain = 0
KNOR 150800Z 23005KT M01/M03 A3042 RMK A01 T10091031  RH  085%=      5-min Rain = 0
KNOR 150805Z 23005KT M01/M03 A3041 RMK A01 T10091031  RH  086%=      5-min Rain = 0
KNOR 150810Z 23005KT M01/M03 A3041 RMK A01 T10081030  RH  086%=      5-min Rain = 0
KNOR 150815Z 23005KT M01/M03 A3041 RMK A01 T10081030  RH  086%=      5-min Rain = 0
KNOR 150820Z 23005KT M01/M03 A3041 RMK A01 T10071029  RH  085%=      5-min Rain = 0
KNOR 150825Z 24006KT M01/M03 A3041 RMK A01 T10061030  RH  085%=      5-min Rain = 0
KNOR 150830Z 25006KT M01/M03 A3041 RMK A01 T10081031  RH  085%=      5-min Rain = 0
KNOR 150835Z 25006KT M01/M03 A3041 RMK A01 T10111032  RH  086%=      5-min Rain = 0
KNOR 150840Z 25006KT M01/M03 A3041 RMK A01 T10121033  RH  086%=      5-min Rain = 0
KNOR 150845Z 25006KT M01/M03 A3041 RMK A01 T10131034  RH  086%=      5-min Rain = 0
KNOR 150850Z 24006KT M02/M04 A3041 RMK A01 T10151035  RH  087%=      5-min Rain = 0
KNOR 150855Z 24006KT M02/M04 A3041 RMK A01 T10171036  RH  087%=      5-min Rain = 0
KNOR 150900Z 23005KT M02/M04 A3041 RMK A01 T10181036  RH  088%=      5-min Rain = 0
KNOR 150905Z 24006KT M02/M04 A3041 RMK A01 T10171036  RH  088%=      5-min Rain = 0
KNOR 150910Z 24006KT M02/M04 A304 RMK A01 T10171035  RH  088%=      5-min Rain = 0
KNOR 150915Z 23006KT M02/M04 A304 RMK A01 T10171036  RH  087%=      5-min Rain = 0
KNOR 150920Z 23006KT M02/M04 A304 RMK A01 T10171035  RH  088%=      5-min Rain = 0
KNOR 150925Z 23006KT M02/M04 A304 RMK A01 T10171035  RH  087%=      5-min Rain = 0
KNOR 150930Z 24006KT M02/M04 A304 RMK A01 T10171036  RH  088%=      5-min Rain = 0
KNOR 150935Z 24006KT M02/M04 A304 RMK A01 T10171035  RH  088%=      5-min Rain = 0
KNOR 150940Z 24006KT M02/M03 A3039 RMK A01 T10151034  RH  088%=      5-min Rain = 0
KNOR 150945Z 24006KT M02/M04 A3039 RMK A01 T10161036  RH  087%=      5-min Rain = 0
KNOR 150950Z 24006KT M02/M04 A3039 RMK A01 T10171036  RH  088%=      5-min Rain = 0
KNOR 150955Z 24006KT M02/M04 A3039 RMK A01 T10171035  RH  088%=      5-min Rain = 0
KNOR 151000Z 24006KT M02/M04 A3039 RMK A01 T10171035  RH  088%=      5-min Rain = 0
KNOR 151005Z 23006KT M02/M03 A3039 RMK A01 T10151033  RH  088%=      5-min Rain = 0
KNOR 151010Z 24006KT M01/M03 A3039 RMK A01 T10131031  RH  088%=      5-min Rain = 0
KNOR 151015Z 23006KT M01/M03 A3038 RMK A01 T10121031  RH  087%=      5-min Rain = 0
KNOR 151020Z 23006KT M01/M03 A3038 RMK A01 T10111030  RH  087%=      5-min Rain = 0
KNOR 151025Z 24006KT M01/M03 A3038 RMK A01 T10111030  RH  087%=      5-min Rain = 0
KNOR 151030Z 24006KT M01/M03 A3038 RMK A01 T10101030  RH  087%=      5-min Rain = 0
KNOR 151035Z 24005KT M01/M03 A3038 RMK A01 T10101030  RH  087%=      5-min Rain = 0
KNOR 151040Z 24006KT M01/M03 A3038 RMK A01 T10111031  RH  087%=      5-min Rain = 0
KNOR 151045Z 24006KT M01/M03 A3038 RMK A01 T10111031  RH  087%=      5-min Rain = 0
KNOR 151050Z 24005KT M01/M03 A3038 RMK A01 T10121032  RH  087%=      5-min Rain = 0
KNOR 151055Z 23006KT M01/M03 A3038 RMK A01 T10131032  RH  088%=      5-min Rain = 0
KNOR 151100Z 24006KT M02/M03 A3038 RMK A01 T10151034  RH  088%=      5-min Rain = 0
KNOR 151105Z 24007KT M02/M03 A3038 RMK A01 T10161034  RH  088%=      5-min Rain = 0
KNOR 151110Z 24006KT M02/M04 A3038 RMK A01 T10181036  RH  088%=      5-min Rain = 0
KNOR 151115Z 24006KT M02/M04 A3038 RMK A01 T10181035  RH  089%=      5-min Rain = 0
KNOR 151120Z 24006KT M02/M03 A3038 RMK A01 T10171034  RH  089%=      5-min Rain = 0
KNOR 151125Z 24006KT M02/M03 A3038 RMK A01 T10171034  RH  089%=      5-min Rain = 0
KNOR 151130Z 25006KT M02/M03 A3038 RMK A01 T10171034  RH  089%=      5-min Rain = 0
KNOR 151135Z 25005KT M02/M04 A3038 RMK A01 T10181036  RH  088%=      5-min Rain = 0
KNOR 151140Z 25005KT M02/M04 A3038 RMK A01 T10191036  RH  089%=      5-min Rain = 0
KNOR 151145Z 24005KT M02/M04 A3038 RMK A01 T10191035  RH  089%=      5-min Rain = 0
KNOR 151150Z 24005KT M02/M04 A3038 RMK A01 T10201036  RH  089%=      5-min Rain = 0
KNOR 151155Z 24006KT M02/M04 A3038 RMK A01 T10201036  RH  089%=      5-min Rain = 0
KNOR 151200Z 24005KT M02/M04 A3038 RMK A01 T10201037  RH  089%=      5-min Rain = 0
KNOR 151205Z 24005KT M02/M04 A3038 RMK A01 T10211037  RH  089%=      5-min Rain = 0
KNOR 151210Z 24005KT M02/M04 A3038 RMK A01 T10241039  RH  089%=      5-min Rain = 0
KNOR 151215Z 24005KT M02/M04 A3038 RMK A01 T10231038  RH  090%=      5-min Rain = 0
KNOR 151220Z 25005KT M02/M04 A3038 RMK A01 T10231038  RH  090%=      5-min Rain = 0
KNOR 151225Z 24005KT M02/M04 A3038 RMK A01 T10231038  RH  090%=      5-min Rain = 0
KNOR 151230Z 24004KT M02/M04 A3038 RMK A01 T10221037  RH  090%=      5-min Rain = 0
KNOR 151235Z 24004KT M02/M04 A3037 RMK A01 T10211037  RH  090%=      5-min Rain = 0
KNOR 151240Z 24004KT M02/M04 A3038 RMK A01 T10201035  RH  090%=      5-min Rain = 0
KNOR 151245Z 24005KT M02/M04 A3038 RMK A01 T10201036  RH  090%=      5-min Rain = 0
KNOR 151250Z 24005KT M02/M04 A3038 RMK A01 T10191035  RH  090%=      5-min Rain = 0
KNOR 151255Z 24005KT M02/M03 A3038 RMK A01 T10191034  RH  090%=      5-min Rain = 0
KNOR 151300Z 25005KT M02/M04 A3038 RMK A01 T10201036  RH  089%=      5-min Rain = 0
KNOR 151305Z 25006KT M02/M04 A3038 RMK A01 T10211036  RH  090%=      5-min Rain = 0
KNOR 151310Z 25006KT M02/M04 A3038 RMK A01 T10211036  RH  090%=      5-min Rain = 0
KNOR 151315Z 24006KT M02/M04 A3038 RMK A01 T10221037  RH  090%=      5-min Rain = 0
KNOR 151320Z 24005KT M02/M04 A3038 RMK A01 T10231038  RH  090%=      5-min Rain = 0
KNOR 151325Z 23005KT M02/M04 A3038 RMK A01 T10211036  RH  090%=      5-min Rain = 0
KNOR 151330Z 23005KT M02/M04 A3038 RMK A01 T10211036  RH  090%=      5-min Rain = 0
KNOR 151335Z 23005KT M02/M03 A3038 RMK A01 T10191034  RH  090%=      5-min Rain = 0
KNOR 151340Z 22005KT M02/M03 A3038 RMK A01 T10151031  RH  090%=      5-min Rain = 0
KNOR 151345Z 21005KT M01/M03 A3038 RMK A01 T10111028  RH  089%=      5-min Rain = 0
KNOR 151350Z 21005KT M01/M02 A3038 RMK A01 T10051024  RH  088%=      5-min Rain = 0
KNOR 151355Z 22005KT M00/M02 A3039 RMK A01 T10021023  RH  086%=      5-min Rain = 0
KNOR 151400Z 21005KT 00/M02 A3039 RMK A01 T00021021  RH  085%=      5-min Rain = 0
KNOR 151405Z 21005KT 01/M02 A3039 RMK A01 T00061019  RH  084%=      5-min Rain = 0
KNOR 151410Z 22005KT 01/M02 A3039 RMK A01 T00091016  RH  084%=      5-min Rain = 0
KNOR 151415Z 22004KT 01/M01 A3039 RMK A01 T00131014  RH  083%=      5-min Rain = 0
KNOR 151420Z 22004KT 02/M01 A3039 RMK A01 T00181010  RH  082%=      5-min Rain = 0
KNOR 151425Z 22004KT 02/M01 A3039 RMK A01 T00241007  RH  081%=      5-min Rain = 0
KNOR 151430Z 21004KT 03/M01 A3039 RMK A01 T00281007  RH  079%=      5-min Rain = 0
KNOR 151435Z 22003KT 03/M00 A3039 RMK A01 T00341004  RH  077%=      5-min Rain = 0
KNOR 151440Z 22003KT 04/M00 A3039 RMK A01 T00381003  RH  076%=      5-min Rain = 0
KNOR 151445Z 22003KT 04/00 A3039 RMK A01 T00440000  RH  074%=      5-min Rain = 0
KNOR 151450Z 23003KT 05/M00 A3039 RMK A01 T00471001  RH  072%=      5-min Rain = 0
KNOR 151455Z 21003KT 06/00 A3039 RMK A01 T00550004  RH  071%=      5-min Rain = 0
KNOR 151500Z 23003KT 06/00 A3039 RMK A01 T00590004  RH  068%=      5-min Rain = 0
KNOR 151505Z 24003KT 07/01 A3039 RMK A01 T00650007  RH  067%=      5-min Rain = 0
KNOR 151510Z 23004KT 07/01 A3039 RMK A01 T00690005  RH  065%=      5-min Rain = 0
KNOR 151515Z 24004KT 07/00 A3039 RMK A01 T00720004  RH  063%=      5-min Rain = 0
KNOR 151520Z 24004KT 08/00 A3039 RMK A01 T00750004  RH  062%=      5-min Rain = 0
KNOR 151525Z 24004KT 08/01 A3039 RMK A01 T00770005  RH  061%=      5-min Rain = 0
KNOR 151530Z 23003KT 08/01 A3039 RMK A01 T00820006  RH  060%=      5-min Rain = 0
KNOR 151535Z 21004KT 09/01 A3039 RMK A01 T00890006  RH  057%=      5-min Rain = 0
KNOR 151540Z 23003KT 09/01 A3039 RMK A01 T00910005  RH  056%=      5-min Rain = 0
KNOR 151545Z 23003KT 10/01 A3039 RMK A01 T00990007  RH  053%=      5-min Rain = 0
KNOR 151550Z 23003KT 10/01 A3039 RMK A01 T01030006  RH  051%=      5-min Rain = 0
KNOR 151555Z 21004KT 11/01 A3039 RMK A01 T01090007  RH  050%=      5-min Rain = 0
KNOR 151600Z 20004KT 11/01 A3038 RMK A01 T01140006  RH  048%=      5-min Rain = 0
KNOR 151605Z 18004KT 12/01 A3038 RMK A01 T01180005  RH  046%=      5-min Rain = 0
KNOR 151610Z 18006KT 12/00 A3039 RMK A01 T01240003  RH  044%=      5-min Rain = 0
KNOR 151615Z 20006KT 13/00 A3038 RMK A01 T01250001  RH  043%=      5-min Rain = 0
KNOR 151620Z 19004KT 13/00 A3038 RMK A01 T012800-0  RH  042%=      5-min Rain = 0
KNOR 151625Z 18006KT 14/00 A3038 RMK A01 T013500-0  RH  040%=      5-min Rain = 0
KNOR 151630Z 20007KT 14/M00 A3038 RMK A01 T01351004  RH  039%=      5-min Rain = 0
KNOR 151635Z 18008KT 14/M00 A3038 RMK A01 T01371001  RH  039%=      5-min Rain = 0
KNOR 151640Z 20009KT 14/M00 A3037 RMK A01 T01381003  RH  038%=      5-min Rain = 0
KNOR 151645Z 18009G15KT 14/M00 A3037 RMK A01 T01411001  RH  038%=      5-min Rain = 0
KNOR 151650Z 19010G17KT 15/M00 A3037 RMK A01 T01451004  RH  036%=      5-min Rain = 0
KNOR 151655Z 19011G16KT 14/M01 A3036 RMK A01 T01441008  RH  035%=      5-min Rain = 0
KNOR 151700Z 19010G15KT 15/M01 A3036 RMK A01 T01451006  RH  036%=      5-min Rain = 0
KNOR 151705Z 18012G17KT 15/M01 A3036 RMK A01 T01481010  RH  034%=      5-min Rain = 0
KNOR 151710Z 18013G20KT 15/M01 A3036 RMK A01 T01481012  RH  033%=      5-min Rain = 0
KNOR 151715Z 19013KT 15/M01 A3036 RMK A01 T01501014  RH  033%=      5-min Rain = 0
KNOR 151720Z 19012G18KT 15/M02 A3035 RMK A01 T01501016  RH  032%=      5-min Rain = 0
KNOR 151725Z 19011G16KT 15/M02 A3035 RMK A01 T01531016  RH  032%=      5-min Rain = 0
KNOR 151730Z 20011G16KT 15/M01 A3035 RMK A01 T01531014  RH  032%=      5-min Rain = 0
KNOR 151735Z 19012G18KT 15/M02 A3035 RMK A01 T01521016  RH  032%=      5-min Rain = 0
KNOR 151740Z 18011G17KT 16/M01 A3034 RMK A01 T01571013  RH  031%=      5-min Rain = 0
KNOR 151745Z 18013G18KT 16/M02 A3034 RMK A01 T01591016  RH  030%=      5-min Rain = 0
KNOR 151750Z 18011G16KT 16/M02 A3034 RMK A01 T01551018  RH  031%=      5-min Rain = 0
KNOR 151755Z 17010KT 16/M02 A3034 RMK A01 T01601015  RH  030%=      5-min Rain = 0
KNOR 151800Z 17011G17KT 16/M01 A3033 RMK A01 T01591014  RH  031%=      5-min Rain = 0
KNOR 151805Z 19010KT 16/M01 A3033 RMK A01 T01641012  RH  030%=      5-min Rain = 0
KNOR 151810Z 19010KT 16/M01 A3033 RMK A01 T01641014  RH  030%=      5-min Rain = 0
KNOR 151815Z 19009G14KT 16/M01 A3033 RMK A01 T01641011  RH  030%=      5-min Rain = 0
KNOR 151820Z 17012G17KT 17/M01 A3032 RMK A01 T01661012  RH  030%=      5-min Rain = 0
KNOR 151825Z 18010KT 16/M01 A3032 RMK A01 T01641014  RH  030%=      5-min Rain = 0
KNOR 151830Z 20010KT 17/M02 A3031 RMK A01 T01701015  RH  028%=      5-min Rain = 0
KNOR 151835Z 18012KT 17/M02 A3031 RMK A01 T01711020  RH  027%=      5-min Rain = 0
KNOR 151840Z 19011G18KT 17/M02 A303 RMK A01 T01721023  RH  027%=      5-min Rain = 0
KNOR 151845Z 19010G19KT 18/M02 A303 RMK A01 T01771024  RH  025%=      5-min Rain = 0
KNOR 151850Z 19010G18KT 18/M03 A3029 RMK A01 T01751025  RH  026%=      5-min Rain = 0
KNOR 151855Z 19009G16KT 18/M03 A3029 RMK A01 T01821026  RH  024%=      5-min Rain = 0
KNOR 151900Z 20009KT 18/M03 A3029 RMK A01 T01761025  RH  025%=      5-min Rain = 0
KNOR 151905Z 17010KT 18/M03 A3028 RMK A01 T01801026  RH  025%=      5-min Rain = 0
KNOR 151910Z 19010G15KT 18/M03 A3028 RMK A01 T01771026  RH  025%=      5-min Rain = 0
KNOR 151915Z 19010G17KT 18/M03 A3028 RMK A01 T01811031  RH  024%=      5-min Rain = 0
KNOR 151920Z 20012G20KT 18/M03 A3028 RMK A01 T01801033  RH  023%=      5-min Rain = 0
KNOR 151925Z 20009G15KT 18/M04 A3027 RMK A01 T01801035  RH  023%=      5-min Rain = 0
KNOR 151930Z 19011KT 19/M04 A3027 RMK A01 T01851035  RH  022%=      5-min Rain = 0
KNOR 151935Z 21010KT 18/M04 A3027 RMK A01 T01821035  RH  023%=      5-min Rain = 0
KNOR 151940Z 19009G15KT 19/M04 A3026 RMK A01 T01861036  RH  022%=      5-min Rain = 0
KNOR 151945Z 18012G18KT 19/M04 A3026 RMK A01 T01851037  RH  022%=      5-min Rain = 0
KNOR 151950Z 19011KT 19/M04 A3026 RMK A01 T01861038  RH  022%=      5-min Rain = 0
KNOR 151955Z 19012G19KT 19/M04 A3025 RMK A01 T01861039  RH  022%=      5-min Rain = 0
KNOR 152000Z 19014G20KT 18/M04 A3025 RMK A01 T01821041  RH  022%=      5-min Rain = 0
KNOR 152005Z 20012G17KT 18/M04 A3025 RMK A01 T01831038  RH  022%=      5-min Rain = 0
KNOR 152010Z 20013G19KT 19/M04 A3025 RMK A01 T01881036  RH  022%=      5-min Rain = 0
KNOR 152015Z 19012G17KT 19/M04 A3024 RMK A01 T01861038  RH  022%=      5-min Rain = 0
KNOR 152020Z 19012G18KT 19/M04 A3024 RMK A01 T01861040  RH  021%=      5-min Rain = 0
KNOR 152025Z 21013G20KT 19/M04 A3024 RMK A01 T01881040  RH  021%=      5-min Rain = 0
KNOR 152030Z 20014KT 19/M04 A3024 RMK A01 T01871044  RH  021%=      5-min Rain = 0
KNOR 152035Z 20014G19KT 19/M04 A3024 RMK A01 T01881041  RH  021%=      5-min Rain = 0
KNOR 152040Z 21013G18KT 19/M04 A3024 RMK A01 T01881038  RH  021%=      5-min Rain = 0
KNOR 152045Z 20013G20KT 19/M04 A3023 RMK A01 T01881040  RH  021%=      5-min Rain = 0
KNOR 152050Z 19012KT 19/M04 A3023 RMK A01 T01871042  RH  021%=      5-min Rain = 0
KNOR 152055Z 20014G20KT 19/M04 A3023 RMK A01 T01871040  RH  021%=      5-min Rain = 0
KNOR 152100Z 20013G18KT 19/M04 A3023 RMK A01 T01881040  RH  021%=      5-min Rain = 0
KNOR 152105Z 20011G18KT 19/M04 A3023 RMK A01 T01891038  RH  021%=      5-min Rain = 0
KNOR 152110Z 20013G20KT 19/M04 A3022 RMK A01 T01871036  RH  022%=      5-min Rain = 0
KNOR 152115Z 21014G20KT 19/M04 A3022 RMK A01 T01881036  RH  022%=      5-min Rain = 0
KNOR 152120Z 21012KT 19/M04 A3022 RMK A01 T01891035  RH  022%=      5-min Rain = 0
KNOR 152125Z 20013G18KT 19/M04 A3022 RMK A01 T01891035  RH  022%=      5-min Rain = 0
KNOR 152130Z 18013KT 19/M03 A3022 RMK A01 T01871034  RH  022%=      5-min Rain = 0
KNOR 152135Z 18013KT 19/M04 A3022 RMK A01 T01861035  RH  022%=      5-min Rain = 0
KNOR 152140Z 19012G20KT 19/M03 A3021 RMK A01 T01861033  RH  023%=      5-min Rain = 0
KNOR 152145Z 19012G19KT 19/M03 A3021 RMK A01 T01851034  RH  023%=      5-min Rain = 0
KNOR 152150Z 19011G16KT 18/M03 A3021 RMK A01 T01841034  RH  022%=      5-min Rain = 0
KNOR 152155Z 19012KT 18/M04 A3021 RMK A01 T01841035  RH  022%=      5-min Rain = 0
KNOR 152200Z 20013G19KT 18/M03 A3021 RMK A01 T01821033  RH  023%=      5-min Rain = 0
KNOR 152205Z 19013KT 18/M03 A302 RMK A01 T01821033  RH  023%=      5-min Rain = 0
KNOR 152210Z 19013KT 18/M03 A302 RMK A01 T01811033  RH  023%=      5-min Rain = 0
KNOR 152215Z 18011KT 18/M03 A302 RMK A01 T01801033  RH  023%=      5-min Rain = 0
KNOR 152220Z 18012KT 18/M03 A302 RMK A01 T01801032  RH  024%=      5-min Rain = 0
KNOR 152225Z 18013G20KT 18/M03 A3019 RMK A01 T01791032  RH  024%=      5-min Rain = 0
KNOR 152230Z 18013G18KT 18/M03 A3019 RMK A01 T01771032  RH  024%=      5-min Rain = 0
KNOR 152235Z 18012KT 18/M03 A3019 RMK A01 T01761031  RH  024%=      5-min Rain = 0
KNOR 152240Z 18010G15KT 18/M03 A3019 RMK A01 T01761029  RH  025%=      5-min Rain = 0
KNOR 152245Z 18012KT 17/M03 A3019 RMK A01 T01741029  RH  025%=      5-min Rain = 0
KNOR 152250Z 17012KT 17/M03 A3019 RMK A01 T01731028  RH  025%=      5-min Rain = 0
KNOR 152255Z 18012KT 17/M03 A3019 RMK A01 T01711028  RH  026%=      5-min Rain = 0
KNOR 152300Z 18010G15KT 17/M03 A3019 RMK A01 T01691029  RH  026%=      5-min Rain = 0
KNOR 152305Z 18012G17KT 17/M03 A3019 RMK A01 T01671031  RH  026%=      5-min Rain = 0
KNOR 152310Z 18011KT 16/M03 A3019 RMK A01 T01641031  RH  026%=      5-min Rain = 0
KNOR 152315Z 18010G16KT 16/M03 A3019 RMK A01 T01631033  RH  026%=      5-min Rain = 0
KNOR 152320Z 18011KT 16/M03 A3019 RMK A01 T01611033  RH  026%=      5-min Rain = 0
KNOR 152325Z 18010KT 16/M03 A3019 RMK A01 T01581033  RH  027%=      5-min Rain = 0
KNOR 152330Z 18008KT 15/M03 A3019 RMK A01 T01521033  RH  028%=      5-min Rain = 0
KNOR 152335Z 17008KT 15/M03 A3019 RMK A01 T01471032  RH  029%=      5-min Rain = 0
KNOR 152340Z 17008KT 14/M03 A3019 RMK A01 T01441030  RH  030%=      5-min Rain = 0
KNOR 152345Z 17008KT 14/M03 A3019 RMK A01 T01401028  RH  031%=      5-min Rain = 0
KNOR 152350Z 17008KT 14/M03 A3019 RMK A01 T01371027  RH  032%=      5-min Rain = 0
KNOR 152355Z 17008KT 14/M03 A302 RMK A01 T01351027  RH  033%=      5-min Rain = 0
KNOR 160000Z 17008KT 13/M03 A302 RMK A01 T01311026  RH  034%=      5-min Rain = 0
KNOR 160005Z 17008KT 13/M03 A302 RMK A01 T01261027  RH  035%=      5-min Rain = 0
KNOR 160010Z 16009KT 12/M03 A302 RMK A01 T01191027  RH  036%=      5-min Rain = 0
KNOR 160015Z 16008KT 12/M03 A302 RMK A01 T01161027  RH  037%=      5-min Rain = 0
KNOR 160020Z 16008KT 11/M03 A302 RMK A01 T01111027  RH  038%=      5-min Rain = 0
KNOR 160025Z 16009KT 11/M03 A302 RMK A01 T01091026  RH  039%=      5-min Rain = 0
KNOR 160030Z 16009KT 11/M03 A302 RMK A01 T01081025  RH  039%=      5-min Rain = 0
KNOR 160035Z 16009KT 11/M02 A302 RMK A01 T01091024  RH  039%=      5-min Rain = 0
KNOR 160040Z 16009KT 11/M02 A302 RMK A01 T01101024  RH  039%=      5-min Rain = 0
KNOR 160045Z 17009KT 11/M02 A302 RMK A01 T01111024  RH  039%=      5-min Rain = 0
KNOR 160050Z 17009KT 11/M03 A302 RMK A01 T01101025  RH  039%=      5-min Rain = 0
KNOR 160055Z 17009KT 11/M03 A302 RMK A01 T01091025  RH  039%=      5-min Rain = 0
KNOR 160100Z 17009KT 11/M03 A302 RMK A01 T01071025  RH  040%=      5-min Rain = 0
KNOR 160105Z 17009KT 11/M03 A302 RMK A01 T01061025  RH  040%=      5-min Rain = 0
KNOR 160110Z 17009KT 11/M02 A302 RMK A01 T01071024  RH  040%=      5-min Rain = 0
KNOR 160115Z 17009KT 11/M02 A3021 RMK A01 T01081024  RH  040%=      5-min Rain = 0
KNOR 160120Z 17009KT 11/M02 A3021 RMK A01 T01061024  RH  040%=      5-min Rain = 0
KNOR 160125Z 17009KT 10/M02 A3021 RMK A01 T01011024  RH  042%=      5-min Rain = 0
KNOR 160130Z 17009KT 10/M02 A3021 RMK A01 T01001023  RH  042%=      5-min Rain = 0
KNOR 160135Z 17009KT 10/M02 A3021 RMK A01 T01011023  RH  042%=      5-min Rain = 0
KNOR 160140Z 17009KT 10/M02 A3021 RMK A01 T01001023  RH  042%=      5-min Rain = 0
KNOR 160145Z 17009KT 10/M02 A3021 RMK A01 T00981023  RH  043%=      5-min Rain = 0
KNOR 160150Z 17009KT 10/M02 A3021 RMK A01 T00961022  RH  044%=      5-min Rain = 0
KNOR 160155Z 17009KT 10/M02 A3021 RMK A01 T00951022  RH  044%=      5-min Rain = 0
KNOR 160200Z 17009KT 10/M02 A3021 RMK A01 T00951022  RH  044%=      5-min Rain = 0
KNOR 160205Z 17009KT 10/M02 A3021 RMK A01 T00961022  RH  044%=      5-min Rain = 0
KNOR 160210Z 17009KT 09/M02 A3021 RMK A01 T00931022  RH  045%=      5-min Rain = 0
KNOR 160215Z 17009KT 09/M02 A3021 RMK A01 T00901022  RH  046%=      5-min Rain = 0
KNOR 160220Z 17009KT 09/M02 A3021 RMK A01 T00891021  RH  046%=      5-min Rain = 0
KNOR 160225Z 17009KT 09/M02 A3021 RMK A01 T00871021  RH  047%=      5-min Rain = 0
KNOR 160230Z 17009KT 09/M02 A3021 RMK A01 T00851021  RH  048%=      5-min Rain = 0
KNOR 160235Z 17009KT 08/M02 A302 RMK A01 T00841020  RH  048%=      5-min Rain = 0
KNOR 160240Z 17009KT 08/M02 A302 RMK A01 T00841020  RH  048%=      5-min Rain = 0
KNOR 160245Z 17010KT 08/M02 A302 RMK A01 T00841019  RH  049%=      5-min Rain = 0
KNOR 160250Z 17010KT 08/M02 A302 RMK A01 T00841019  RH  049%=      5-min Rain = 0
KNOR 160255Z 17010KT 08/M02 A302 RMK A01 T00811019  RH  050%=      5-min Rain = 0
KNOR 160300Z 17010KT 08/M02 A3019 RMK A01 T00811018  RH  050%=      5-min Rain = 0
KNOR 160305Z 17010KT 08/M02 A3019 RMK A01 T00821018  RH  050%=      5-min Rain = 0
KNOR 160310Z 17011KT 08/M02 A3019 RMK A01 T00821017  RH  050%=      5-min Rain = 0
KNOR 160315Z 17010KT 08/M02 A3019 RMK A01 T00821017  RH  050%=      5-min Rain = 0
KNOR 160320Z 18010KT 08/M02 A3019 RMK A01 T00811017  RH  050%=      5-min Rain = 0
KNOR 160325Z 18009KT 08/M02 A3019 RMK A01 T00801017  RH  051%=      5-min Rain = 0
KNOR 160330Z 18009KT 08/M02 A3019 RMK A01 T00781018  RH  051%=      5-min Rain = 0
KNOR 160335Z 18009KT 08/M02 A3019 RMK A01 T00761018  RH  052%=      5-min Rain = 0
KNOR 160340Z 18009KT 08/M02 A3019 RMK A01 T00751017  RH  053%=      5-min Rain = 0
KNOR 160345Z 18009KT 07/M02 A3019 RMK A01 T00741017  RH  053%=      5-min Rain = 0
KNOR 160350Z 19008KT 07/M02 A3019 RMK A01 T00741016  RH  053%=      5-min Rain = 0
KNOR 160355Z 19007KT 07/M02 A302 RMK A01 T00731016  RH  054%=      5-min Rain = 0
KNOR 160400Z 19006KT 07/M02 A302 RMK A01 T00721016  RH  054%=      5-min Rain = 0
KNOR 160405Z 19006KT 07/M02 A302 RMK A01 T00701016  RH  055%=      5-min Rain = 0
KNOR 160410Z 19005KT 07/M02 A302 RMK A01 T00671017  RH  055%=      5-min Rain = 0
KNOR 160415Z 18006KT 07/M02 A302 RMK A01 T00661017  RH  056%=      5-min Rain = 0
KNOR 160420Z 18006KT 07/M02 A302 RMK A01 T00651016  RH  056%=      5-min Rain = 0
KNOR 160425Z 17006KT 06/M02 A302 RMK A01 T00641016  RH  057%=      5-min Rain = 0
KNOR 160430Z 17007KT 07/M02 A302 RMK A01 T00661015  RH  057%=      5-min Rain = 0
KNOR 160435Z 18006KT 07/M02 A302 RMK A01 T00671015  RH  056%=      5-min Rain = 0
KNOR 160440Z 18006KT 07/M02 A302 RMK A01 T00651016  RH  057%=      5-min Rain = 0
KNOR 160445Z 18005KT 06/M02 A302 RMK A01 T00611016  RH  058%=      5-min Rain = 0
KNOR 160450Z 18005KT 06/M02 A302 RMK A01 T00591017  RH  059%=      5-min Rain = 0
KNOR 160455Z 18006KT 06/M02 A302 RMK A01 T00581016  RH  059%=      5-min Rain = 0
KNOR 160500Z 18006KT 06/M02 A3019 RMK A01 T00571016  RH  060%=      5-min Rain = 0
KNOR 160505Z 17006KT 06/M02 A3019 RMK A01 T00561016  RH  060%=      5-min Rain = 0
KNOR 160510Z 17006KT 06/M02 A3019 RMK A01 T00561016  RH  060%=      5-min Rain = 0
KNOR 160515Z 17006KT 06/M02 A3019 RMK A01 T00551016  RH  061%=      5-min Rain = 0
KNOR 160520Z 17006KT 05/M02 A3019 RMK A01 T00541016  RH  061%=      5-min Rain = 0
KNOR 160525Z 17006KT 05/M02 A3019 RMK A01 T00531016  RH  062%=      5-min Rain = 0
KNOR 160530Z 17007KT 06/M02 A3019 RMK A01 T00551015  RH  061%=      5-min Rain = 0
KNOR 160535Z 17007KT 06/M01 A3019 RMK A01 T00581014  RH  060%=      5-min Rain = 0
KNOR 160540Z 17008KT 06/M01 A3018 RMK A01 T00611013  RH  060%=      5-min Rain = 0
KNOR 160545Z 17009KT 07/M01 A3018 RMK A01 T00661013  RH  058%=      5-min Rain = 0
KNOR 160550Z 17008KT 07/M01 A3018 RMK A01 T00671014  RH  057%=      5-min Rain = 0
KNOR 160555Z 17008KT 07/M01 A3018 RMK A01 T00661014  RH  057%=      5-min Rain = 0

Page generated in 0.0128 seconds.